createdAt,value
2023-03-01T00:01:24.674Z,-4.22
2023-03-01T00:03:52.831Z,-4.26
2023-03-01T00:06:21.225Z,-4.26
2023-03-01T00:08:49.502Z,-4.22
2023-03-01T00:11:22.422Z,-4.23
2023-03-01T00:13:52.860Z,-4.18
2023-03-01T00:16:25.913Z,-4.33
2023-03-01T00:18:55.646Z,-4.29
2023-03-01T00:21:23.936Z,-4.23
2023-03-01T00:23:52.017Z,-4.24
2023-03-01T00:26:21.485Z,-4.22
2023-03-01T00:28:49.444Z,-4.18
2023-03-01T00:31:19.884Z,-4.16
2023-03-01T00:33:47.892Z,-4.17
2023-03-01T00:36:16.807Z,-4.17
2023-03-01T00:38:45.980Z,-4.14
2023-03-01T00:41:15.685Z,-4.17
2023-03-01T00:43:43.951Z,-4.20
2023-03-01T00:46:16.573Z,-4.26
2023-03-01T00:48:44.696Z,-4.31
2023-03-01T00:51:14.834Z,-4.25
2023-03-01T00:53:43.214Z,-4.22
2023-03-01T00:56:12.416Z,-4.24
2023-03-01T00:58:40.077Z,-4.28
2023-03-01T01:01:18.370Z,-4.29
2023-03-01T01:03:50.789Z,-4.28
2023-03-01T01:06:45.507Z,-4.27
2023-03-01T01:09:20.817Z,-4.26
2023-03-01T01:11:50.939Z,-4.26
2023-03-01T01:14:19.903Z,-4.20
2023-03-01T01:16:47.791Z,-4.19
2023-03-01T01:19:16.527Z,-4.17
2023-03-01T01:21:44.359Z,-4.16
2023-03-01T01:24:12.489Z,-4.16
2023-03-01T01:26:39.798Z,-4.11
2023-03-01T01:29:08.003Z,-4.10
2023-03-01T01:31:37.193Z,-4.14
2023-03-01T01:34:07.173Z,-4.14
2023-03-01T01:36:35.636Z,-4.16
2023-03-01T01:39:03.642Z,-4.16
2023-03-01T01:41:31.232Z,-4.09
2023-03-01T01:44:24.612Z,-4.16
2023-03-01T01:46:55.889Z,-4.29
2023-03-01T01:49:29.322Z,-4.19
2023-03-01T01:52:22.122Z,-4.21
2023-03-01T01:55:14.175Z,-4.21
2023-03-01T01:57:53.722Z,-4.18
2023-03-01T02:00:26.624Z,-4.22
2023-03-01T02:03:01.118Z,-4.20
2023-03-01T02:06:07.412Z,-4.14
2023-03-01T02:08:38.187Z,-4.22
2023-03-01T02:11:06.777Z,-4.13
2023-03-01T02:13:34.790Z,-4.09
2023-03-01T02:16:06.841Z,-4.09
2023-03-01T02:18:34.181Z,-4.09
2023-03-01T02:21:01.686Z,-4.11
2023-03-01T02:23:31.037Z,-4.14
2023-03-01T02:26:29.668Z,-4.13
2023-03-01T02:28:57.256Z,-4.26
2023-03-01T02:31:43.331Z,-4.22
2023-03-01T02:34:18.273Z,-4.16
2023-03-01T02:36:51.641Z,-4.20
2023-03-01T02:39:20.023Z,-4.20
2023-03-01T02:41:51.359Z,-4.22
2023-03-01T02:44:18.919Z,-4.24
2023-03-01T02:46:52.987Z,-4.23
2023-03-01T02:49:21.638Z,-4.26
2023-03-01T02:52:26.836Z,-4.27
2023-03-01T02:55:09.834Z,-4.29
2023-03-01T02:57:40.338Z,-4.24
2023-03-01T03:00:23.931Z,-4.24
2023-03-01T03:02:53.771Z,-4.24
2023-03-01T03:05:27.352Z,-4.22
2023-03-01T03:07:59.822Z,-4.21
2023-03-01T03:10:30.316Z,-4.25
2023-03-01T03:13:01.614Z,-4.23
2023-03-01T03:15:30.189Z,-4.20
2023-03-01T03:17:59.498Z,-4.20
2023-03-01T03:20:28.860Z,-4.27
2023-03-01T03:22:59.431Z,-4.14
2023-03-01T03:25:28.924Z,-4.16
2023-03-01T03:27:58.293Z,-4.12
2023-03-01T03:30:29.340Z,-4.09
2023-03-01T03:32:57.753Z,-4.05
2023-03-01T03:35:26.488Z,-4.04
2023-03-01T03:38:12.499Z,-4.03
2023-03-01T03:40:41.878Z,-3.99
2023-03-01T03:43:13.294Z,-4.02
2023-03-01T03:45:40.989Z,-3.99
2023-03-01T03:48:13.386Z,-4.04
2023-03-01T03:50:41.397Z,-4.02
2023-03-01T03:53:11.937Z,-4.01
2023-03-01T03:55:40.504Z,-4.08
2023-03-01T03:58:10.830Z,-4.04
2023-03-01T04:00:43.374Z,-4.04
2023-03-01T04:03:11.961Z,-4.03
2023-03-01T04:05:41.009Z,-4.05
2023-03-01T04:08:09.883Z,-3.98
2023-03-01T04:10:42.769Z,-3.96
2023-03-01T04:13:15.690Z,-3.96
2023-03-01T04:15:44.581Z,-3.97
2023-03-01T04:18:16.791Z,-3.92
2023-03-01T04:20:46.213Z,-3.89
2023-03-01T04:23:21.682Z,-3.91
2023-03-01T04:25:58.115Z,-3.92
2023-03-01T04:28:30.119Z,-3.90
2023-03-01T04:30:59.097Z,-3.92
2023-03-01T04:33:26.862Z,-3.89
2023-03-01T04:35:54.496Z,-3.89
2023-03-01T04:38:22.471Z,-3.90
2023-03-01T04:40:49.741Z,-3.91
2023-03-01T04:43:18.746Z,-3.98
2023-03-01T04:45:46.367Z,-3.99
2023-03-01T04:48:14.031Z,-3.93
2023-03-01T04:50:41.354Z,-3.94
2023-03-01T04:53:09.179Z,-4.05
2023-03-01T04:55:36.512Z,-3.90
2023-03-01T04:58:04.123Z,-3.91
2023-03-01T05:00:31.447Z,-3.87
2023-03-01T05:03:01.610Z,-3.92
2023-03-01T05:05:32.202Z,-3.94
2023-03-01T05:08:02.311Z,-3.96
2023-03-01T05:10:31.593Z,-3.91
2023-03-01T05:13:00.313Z,-3.93
2023-03-01T05:15:29.102Z,-3.93
2023-03-01T05:18:00.285Z,-3.92
2023-03-01T05:20:30.066Z,-3.92
2023-03-01T05:23:01.147Z,-4.01
2023-03-01T05:25:34.268Z,-3.89
2023-03-01T05:28:05.503Z,-3.91
2023-03-01T05:30:34.701Z,-3.95
2023-03-01T05:33:02.699Z,-3.97
2023-03-01T05:35:30.781Z,-3.95
2023-03-01T05:37:58.372Z,-3.95
2023-03-01T05:40:25.689Z,-3.99
2023-03-01T05:42:57.841Z,-3.97
2023-03-01T05:45:26.100Z,-3.94
2023-03-01T05:47:56.231Z,-3.98
2023-03-01T05:50:27.292Z,-3.90
2023-03-01T05:53:06.817Z,-3.81
2023-03-01T05:55:35.559Z,-3.75
2023-03-01T05:58:06.527Z,-3.71
2023-03-01T06:00:35.006Z,-3.71
2023-03-01T06:03:03.529Z,-3.65
2023-03-01T06:05:31.264Z,-3.69
2023-03-01T06:08:03.003Z,-3.56
2023-03-01T06:10:30.575Z,-3.52
2023-03-01T06:12:58.415Z,-3.45
2023-03-01T06:15:26.551Z,-3.36
2023-03-01T06:18:00.312Z,-3.27
2023-03-01T06:20:29.902Z,-3.28
2023-03-01T06:22:57.981Z,-3.17
2023-03-01T06:25:27.814Z,-3.04
2023-03-01T06:27:57.086Z,-2.90
2023-03-01T06:30:30.919Z,-2.70
2023-03-01T06:33:02.546Z,-2.57
2023-03-01T06:35:31.196Z,-2.45
2023-03-01T06:38:00.124Z,-2.36
2023-03-01T06:40:27.774Z,-2.28
2023-03-01T06:42:55.883Z,-2.05
2023-03-01T06:45:23.107Z,-1.84
2023-03-01T06:47:50.835Z,-1.66
2023-03-01T06:50:19.077Z,-1.61
2023-03-01T06:55:17.335Z,-1.19
2023-03-01T06:57:45.308Z,-1.02
2023-03-01T07:00:13.305Z,-0.87
2023-03-01T07:02:41.141Z,-0.74
2023-03-01T07:05:09.878Z,-0.56
2023-03-01T07:07:37.464Z,-0.37
2023-03-01T07:10:05.141Z,-0.13
2023-03-01T07:12:33.835Z,-0.02
2023-03-01T07:15:01.198Z,0.20
2023-03-01T07:17:29.206Z,0.32
2023-03-01T07:19:57.246Z,0.51
2023-03-01T07:22:24.755Z,0.43
2023-03-01T07:24:52.214Z,0.39
2023-03-01T07:27:19.775Z,0.57
2023-03-01T07:29:46.903Z,0.85
2023-03-01T07:32:14.663Z,1.02
2023-03-01T07:34:42.189Z,1.21
2023-03-01T07:37:10.254Z,1.32
2023-03-01T07:39:37.414Z,1.27
2023-03-01T07:42:04.846Z,1.27
2023-03-01T07:44:32.334Z,1.47
2023-03-01T07:46:59.804Z,1.64
2023-03-01T07:49:28.216Z,1.64
2023-03-01T07:51:56.251Z,1.80
2023-03-01T07:54:23.643Z,1.92
2023-03-01T07:56:51.485Z,1.96
2023-03-01T07:59:18.934Z,2.04
2023-03-01T08:01:46.859Z,2.15
2023-03-01T08:04:14.307Z,2.07
2023-03-01T08:06:42.255Z,2.00
2023-03-01T08:09:10.575Z,2.08
2023-03-01T08:11:38.781Z,2.20
2023-03-01T08:14:07.546Z,2.14
2023-03-01T08:16:36.586Z,2.09
2023-03-01T08:19:12.221Z,1.94
2023-03-01T08:21:40.205Z,1.83
2023-03-01T08:24:08.845Z,1.91
2023-03-01T08:26:36.534Z,1.80
2023-03-01T08:29:04.161Z,1.82
2023-03-01T08:31:37.779Z,1.95
2023-03-01T08:34:13.400Z,1.92
2023-03-01T08:36:43.165Z,2.03
2023-03-01T08:39:12.541Z,2.09
2023-03-01T08:41:40.496Z,2.12
2023-03-01T08:44:07.899Z,2.27
2023-03-01T08:46:38.651Z,2.44
2023-03-01T08:49:12.653Z,2.52
2023-03-01T08:51:40.777Z,2.53
2023-03-01T08:54:12.324Z,2.63
2023-03-01T08:56:40.418Z,2.73
2023-03-01T08:59:07.980Z,2.70
2023-03-01T09:01:35.564Z,2.81
2023-03-01T09:04:02.856Z,2.95
2023-03-01T09:06:39.916Z,3.12
2023-03-01T09:09:08.018Z,3.36
2023-03-01T09:11:35.987Z,3.18
2023-03-01T09:14:06.886Z,3.26
2023-03-01T09:16:37.227Z,3.36
2023-03-01T09:19:05.393Z,3.35
2023-03-01T09:21:40.187Z,3.31
2023-03-01T09:24:14.248Z,3.30
2023-03-01T09:26:42.459Z,3.44
2023-03-01T09:29:11.057Z,3.37
2023-03-01T09:31:39.393Z,3.30
2023-03-01T09:34:07.287Z,3.30
2023-03-01T09:36:35.334Z,3.23
2023-03-01T09:39:03.431Z,3.32
2023-03-01T09:41:55.980Z,3.21
2023-03-01T09:44:47.672Z,3.18
2023-03-01T09:47:30.841Z,2.95
2023-03-01T09:50:15.147Z,3.04
2023-03-01T09:52:50.003Z,3.12
2023-03-01T09:55:23.439Z,3.23
2023-03-01T09:57:54.686Z,3.36
2023-03-01T10:00:35.752Z,3.46
2023-03-01T10:03:40.843Z,3.44
2023-03-01T10:06:08.210Z,3.49
2023-03-01T10:08:43.195Z,3.61
2023-03-01T10:11:23.302Z,3.59
2023-03-01T10:14:30.367Z,3.66
2023-03-01T10:17:04.936Z,3.70
2023-03-01T10:19:38.048Z,3.66
2023-03-01T10:22:17.610Z,3.63
2023-03-01T10:24:47.724Z,3.77
2023-03-01T10:27:31.192Z,3.84
2023-03-01T10:30:10.861Z,3.80
2023-03-01T10:32:38.493Z,3.89
2023-03-01T10:35:26.378Z,3.99
2023-03-01T10:38:14.747Z,4.13
2023-03-01T10:41:02.467Z,4.29
2023-03-01T10:43:54.916Z,4.30
2023-03-01T10:46:29.911Z,4.40
2023-03-01T10:49:07.193Z,4.40
2023-03-01T10:51:35.005Z,4.53
2023-03-01T10:54:36.594Z,4.56
2023-03-01T10:57:05.916Z,4.48
2023-03-01T10:59:35.453Z,4.47
2023-03-01T11:02:25.651Z,4.60
2023-03-01T11:05:22.523Z,4.75
2023-03-01T11:08:00.868Z,4.71
2023-03-01T11:10:29.744Z,4.84
2023-03-01T11:13:17.285Z,4.89
2023-03-01T11:15:45.069Z,4.87
2023-03-01T11:18:31.075Z,4.97
2023-03-01T11:21:03.242Z,4.99
2023-03-01T11:23:32.060Z,4.88
2023-03-01T11:26:13.100Z,4.86
2023-03-01T11:28:43.336Z,4.85
2023-03-01T11:31:16.010Z,4.86
2023-03-01T11:33:49.665Z,4.85
2023-03-01T11:36:18.573Z,4.90
2023-03-01T11:38:46.583Z,4.95
2023-03-01T11:41:23.077Z,5.01
2023-03-01T11:43:54.580Z,5.02
2023-03-01T11:47:01.619Z,5.02
2023-03-01T11:50:03.153Z,5.06
2023-03-01T11:52:56.182Z,5.21
2023-03-01T11:55:52.686Z,5.27
2023-03-01T11:58:38.645Z,5.20
2023-03-01T12:01:31.189Z,5.25
2023-03-01T12:04:37.775Z,5.35
2023-03-01T12:07:20.646Z,5.36
2023-03-01T12:09:53.862Z,5.38
2023-03-01T12:12:32.271Z,5.51
2023-03-01T12:15:36.844Z,5.54
2023-03-01T12:18:14.781Z,5.50
2023-03-01T12:20:48.059Z,5.48
2023-03-01T12:23:38.211Z,5.45
2023-03-01T12:26:15.493Z,5.42
2023-03-01T12:28:53.222Z,5.40
2023-03-01T12:31:58.013Z,5.40
2023-03-01T12:34:31.379Z,5.49
2023-03-01T12:37:23.249Z,5.58
2023-03-01T12:40:18.959Z,5.54
2023-03-01T12:43:07.830Z,5.50
2023-03-01T12:46:01.739Z,5.70
2023-03-01T12:48:31.814Z,5.76
2023-03-01T12:51:04.190Z,5.71
2023-03-01T12:53:43.537Z,5.68
2023-03-01T12:56:13.569Z,5.57
2023-03-01T12:58:58.665Z,5.55
2023-03-01T13:01:44.921Z,5.62
2023-03-01T13:04:30.312Z,5.68
2023-03-01T13:07:07.116Z,5.79
2023-03-01T13:09:52.855Z,5.87
2023-03-01T13:12:50.140Z,5.87
2023-03-01T13:15:23.425Z,5.76
2023-03-01T13:17:55.870Z,5.80
2023-03-01T13:20:50.653Z,5.68
2023-03-01T13:23:23.802Z,5.80
2023-03-01T13:26:12.954Z,5.74
2023-03-01T13:28:43.103Z,5.80
2023-03-01T13:31:12.660Z,5.83
2023-03-01T13:33:44.256Z,5.86
2023-03-01T13:36:34.390Z,5.85
2023-03-01T13:39:22.893Z,5.88
2023-03-01T13:41:52.975Z,5.88
2023-03-01T13:44:55.661Z,5.87
2023-03-01T13:47:23.000Z,5.85
2023-03-01T13:50:01.885Z,5.81
2023-03-01T13:52:48.034Z,5.86
2023-03-01T13:55:15.726Z,5.92
2023-03-01T13:57:46.163Z,5.85
2023-03-01T14:00:31.590Z,5.83
2023-03-01T14:03:16.945Z,5.92
2023-03-01T14:06:17.711Z,5.93
2023-03-01T14:08:47.472Z,5.89
2023-03-01T14:11:33.484Z,5.98
2023-03-01T14:14:40.136Z,5.89
2023-03-01T14:17:20.757Z,5.86
2023-03-01T14:19:49.345Z,5.87
2023-03-01T14:22:30.868Z,5.88
2023-03-01T14:25:04.940Z,5.84
2023-03-01T14:27:43.838Z,5.95
2023-03-01T14:30:35.657Z,6.00
2023-03-01T14:33:07.753Z,5.93
2023-03-01T14:35:37.261Z,5.94
2023-03-01T14:38:05.316Z,6.03
2023-03-01T14:40:37.760Z,5.96
2023-03-01T14:43:24.188Z,5.95
2023-03-01T14:45:52.030Z,5.91
2023-03-01T14:48:20.509Z,5.89
2023-03-01T14:50:48.463Z,5.91
2023-03-01T14:53:50.923Z,5.87
2023-03-01T14:56:20.011Z,5.87
2023-03-01T14:58:57.462Z,5.85
2023-03-01T15:01:28.921Z,5.80
2023-03-01T15:03:56.724Z,5.67
2023-03-01T15:06:25.263Z,5.69
2023-03-01T15:08:55.107Z,5.63
2023-03-01T15:11:34.145Z,5.63
2023-03-01T15:14:01.982Z,5.54
2023-03-01T15:16:34.465Z,5.49
2023-03-01T15:19:03.328Z,5.44
2023-03-01T15:21:36.192Z,5.41
2023-03-01T15:24:06.009Z,5.38
2023-03-01T15:26:43.351Z,5.28
2023-03-01T15:29:31.165Z,5.21
2023-03-01T15:32:05.040Z,5.17
2023-03-01T15:34:40.885Z,5.08
2023-03-01T15:37:50.273Z,5.08
2023-03-01T15:40:32.791Z,5.00
2023-03-01T15:43:00.447Z,4.97
2023-03-01T15:45:35.119Z,4.91
2023-03-01T15:48:05.295Z,4.89
2023-03-01T15:50:35.637Z,4.76
2023-03-01T15:53:15.540Z,4.69
2023-03-01T15:55:43.883Z,4.66
2023-03-01T15:58:14.715Z,4.64
2023-03-01T16:00:59.149Z,4.59
2023-03-01T16:03:27.694Z,4.57
2023-03-01T16:05:55.583Z,4.45
2023-03-01T16:08:23.039Z,4.44
2023-03-01T16:10:52.664Z,4.32
2023-03-01T16:13:20.528Z,4.31
2023-03-01T16:15:48.638Z,4.22
2023-03-01T16:18:21.351Z,4.21
2023-03-01T16:20:50.009Z,4.11
2023-03-01T16:23:17.444Z,4.01
2023-03-01T16:25:45.528Z,3.99
2023-03-01T16:28:12.991Z,3.88
2023-03-01T16:30:41.080Z,3.74
2023-03-01T16:33:26.900Z,3.65
2023-03-01T16:35:57.212Z,3.50
2023-03-01T16:38:24.683Z,3.39
2023-03-01T16:40:52.995Z,3.24
2023-03-01T16:43:20.328Z,3.09
2023-03-01T16:45:48.112Z,2.97
2023-03-01T16:48:15.816Z,2.81
2023-03-01T16:50:43.601Z,2.75
2023-03-01T16:53:11.102Z,2.61
2023-03-01T16:55:39.137Z,2.46
2023-03-01T16:58:06.912Z,2.24
2023-03-01T17:00:34.656Z,2.14
2023-03-01T17:03:02.052Z,1.98
2023-03-01T17:05:30.077Z,1.87
2023-03-01T17:07:58.318Z,1.82
2023-03-01T17:10:25.954Z,1.69
2023-03-01T17:12:53.307Z,1.59
2023-03-01T17:15:21.096Z,1.47
2023-03-01T17:17:52.236Z,1.40
2023-03-01T17:20:20.536Z,1.32
2023-03-01T17:22:47.904Z,1.21
2023-03-01T17:25:16.664Z,1.07
2023-03-01T17:27:44.709Z,0.92
2023-03-01T17:30:14.766Z,0.73
2023-03-01T17:32:44.064Z,0.77
2023-03-01T17:35:12.620Z,0.67
2023-03-01T17:37:46.702Z,0.60
2023-03-01T17:40:15.082Z,0.55
2023-03-01T17:42:42.591Z,0.39
2023-03-01T17:45:11.518Z,0.41
2023-03-01T17:47:39.458Z,0.34
2023-03-01T17:50:09.886Z,0.26
2023-03-01T17:52:37.805Z,0.18
2023-03-01T17:55:06.164Z,0.12
2023-03-01T17:57:34.250Z,0.09
2023-03-01T18:00:02.381Z,0.08
2023-03-01T18:02:39.237Z,0.04
2023-03-01T18:05:07.818Z,-0.01
2023-03-01T18:07:35.517Z,-0.05
2023-03-01T18:10:04.276Z,-0.10
2023-03-01T18:12:32.630Z,-0.15
2023-03-01T18:15:00.344Z,-0.21
2023-03-01T18:17:27.738Z,-0.26
2023-03-01T18:19:56.980Z,-0.29
2023-03-01T18:22:25.742Z,-0.35
2023-03-01T18:24:54.461Z,-0.40
2023-03-01T18:27:21.875Z,-0.46
2023-03-01T18:29:50.051Z,-0.55
2023-03-01T18:32:18.390Z,-0.62
2023-03-01T18:34:46.307Z,-0.71
2023-03-01T18:37:14.794Z,-0.67
2023-03-01T18:39:42.502Z,-0.72
2023-03-01T18:42:10.296Z,-0.72
2023-03-01T18:44:38.678Z,-0.82
2023-03-01T18:47:06.049Z,-0.77
2023-03-01T18:49:34.145Z,-0.83
2023-03-01T18:52:01.728Z,-0.86
2023-03-01T18:54:29.867Z,-0.84
2023-03-01T18:56:57.484Z,-0.88
2023-03-01T18:59:25.387Z,-0.85
2023-03-01T19:01:52.820Z,-0.85
2023-03-01T19:04:20.705Z,-0.88
2023-03-01T19:06:48.165Z,-0.96
2023-03-01T19:09:16.230Z,-1.03
2023-03-01T19:11:43.651Z,-1.05
2023-03-01T19:14:11.320Z,-1.05
2023-03-01T19:16:39.047Z,-1.10
2023-03-01T19:19:08.968Z,-1.08
2023-03-01T19:21:37.246Z,-1.08
2023-03-01T19:24:05.721Z,-1.10
2023-03-01T19:26:33.775Z,-1.12
2023-03-01T19:29:03.776Z,-1.16
2023-03-01T19:31:32.206Z,-1.10
2023-03-01T19:34:16.033Z,-1.14
2023-03-01T19:36:44.687Z,-1.21
2023-03-01T19:39:14.624Z,-1.18
2023-03-01T19:41:43.926Z,-1.18
2023-03-01T19:44:12.371Z,-1.28
2023-03-01T19:46:40.977Z,-1.27
2023-03-01T19:49:09.786Z,-1.27
2023-03-01T19:51:39.199Z,-1.31
2023-03-01T19:54:10.533Z,-1.31
2023-03-01T19:56:47.113Z,-1.31
2023-03-01T19:59:16.285Z,-1.37
2023-03-01T20:01:43.627Z,-1.38
2023-03-01T20:04:13.134Z,-1.40
2023-03-01T20:06:41.732Z,-1.43
2023-03-01T20:09:21.138Z,-1.49
2023-03-01T20:11:50.563Z,-1.46
2023-03-01T20:14:23.736Z,-1.51
2023-03-01T20:16:53.382Z,-1.41
2023-03-01T20:19:21.435Z,-1.40
2023-03-01T20:21:48.973Z,-1.40
2023-03-01T20:24:16.577Z,-1.41
2023-03-01T20:26:44.099Z,-1.42
2023-03-01T20:29:12.786Z,-1.42
2023-03-01T20:31:41.832Z,-1.45
2023-03-01T20:34:09.711Z,-1.45
2023-03-01T20:36:39.007Z,-1.47
2023-03-01T20:39:10.828Z,-1.46
2023-03-01T20:41:39.497Z,-1.50
2023-03-01T20:44:07.343Z,-1.48
2023-03-01T20:46:35.595Z,-1.47
2023-03-01T20:49:04.936Z,-1.43
2023-03-01T20:51:32.309Z,-1.48
2023-03-01T20:54:00.153Z,-1.40
2023-03-01T20:56:27.591Z,-1.42
2023-03-01T20:59:09.958Z,-1.46
2023-03-01T21:01:38.799Z,-1.47
2023-03-01T21:04:06.820Z,-1.52
2023-03-01T21:06:34.581Z,-1.65
2023-03-01T21:09:02.385Z,-1.70
2023-03-01T21:11:30.008Z,-1.71
2023-03-01T21:13:59.597Z,-1.75
2023-03-01T21:16:28.292Z,-1.80
2023-03-01T21:18:56.109Z,-1.86
2023-03-01T21:21:24.283Z,-1.90
2023-03-01T21:23:52.225Z,-1.92
2023-03-01T21:26:21.996Z,-1.92
2023-03-01T21:28:54.622Z,-1.98
2023-03-01T21:31:24.140Z,-2.03
2023-03-01T21:33:53.659Z,-2.06
2023-03-01T21:36:22.627Z,-2.04
2023-03-01T21:38:52.917Z,-2.06
2023-03-01T21:41:25.822Z,-2.09
2023-03-01T21:43:57.039Z,-2.12
2023-03-01T21:46:26.355Z,-2.15
2023-03-01T21:48:57.812Z,-2.15
2023-03-01T21:51:31.346Z,-2.20
2023-03-01T21:54:01.674Z,-2.20
2023-03-01T21:56:32.133Z,-2.24
2023-03-01T21:59:00.076Z,-2.29
2023-03-01T22:01:28.828Z,-2.30
2023-03-01T22:03:58.580Z,-2.31
2023-03-01T22:06:35.453Z,-2.39
2023-03-01T22:09:07.690Z,-2.30
2023-03-01T22:11:38.028Z,-2.28
2023-03-01T22:14:06.020Z,-2.35
2023-03-01T22:16:35.748Z,-2.35
2023-03-01T22:19:04.924Z,-2.37
2023-03-01T22:21:32.280Z,-2.40
2023-03-01T22:24:00.179Z,-2.42
2023-03-01T22:26:31.057Z,-2.47
2023-03-01T22:29:01.781Z,-2.43
2023-03-01T22:31:29.202Z,-2.46
2023-03-01T22:33:57.904Z,-2.49
2023-03-01T22:36:26.085Z,-2.54
2023-03-01T22:39:00.127Z,-2.52
2023-03-01T22:41:33.562Z,-2.38
2023-03-01T22:44:01.408Z,-2.36
2023-03-01T22:46:29.322Z,-2.40
2023-03-01T22:48:56.906Z,-2.42
2023-03-01T22:51:30.076Z,-2.45
2023-03-01T22:53:57.914Z,-2.45
2023-03-01T22:56:29.240Z,-2.46
2023-03-01T22:59:12.804Z,-2.49
2023-03-01T23:01:41.235Z,-2.48
2023-03-01T23:04:09.215Z,-2.50
2023-03-01T23:06:50.722Z,-2.56
2023-03-01T23:09:21.315Z,-2.52
2023-03-01T23:11:49.410Z,-2.56
2023-03-01T23:14:17.094Z,-2.53
2023-03-01T23:16:44.510Z,-2.52
2023-03-01T23:19:12.346Z,-2.50
2023-03-01T23:21:44.281Z,-2.53
2023-03-01T23:24:12.619Z,-2.56
2023-03-01T23:26:40.642Z,-2.55
2023-03-01T23:29:08.823Z,-2.58
2023-03-01T23:31:36.093Z,-2.56
2023-03-01T23:34:04.326Z,-2.50
2023-03-01T23:36:34.281Z,-2.52
2023-03-01T23:39:04.769Z,-2.52
2023-03-01T23:41:33.762Z,-2.57
2023-03-01T23:44:02.771Z,-2.55
2023-03-01T23:46:34.069Z,-2.59
2023-03-01T23:49:02.531Z,-2.63
2023-03-01T23:51:29.854Z,-2.74
2023-03-01T23:54:02.536Z,-2.73
2023-03-01T23:56:36.190Z,-2.74
2023-03-01T23:59:09.346Z,-2.72
